Time;durP1;ratioP1;P1;durP2;ratioP2;P2;SDS_P1;SDS_P2;PMS_P1;PMS_P2;Temp;Humidity;BMP_temperature;BMP_pressure;BME280_temperature;BME280_humidity;BME280_pressure;Samples;Min_cycle;Max_cycle;Signal;HPM_P1;HPM_P2
2022/08/20 00:00:19;;;;;;;13.32;8.27;;;;;;;20.28;100.00;99790.13;5550775;32;34647;-72
2022/08/20 00:03:26;;;;;;;13.43;8.23;;;;;;;20.31;100.00;99786.97;5550873;32;34134;-72
2022/08/20 00:06:29;;;;;;;14.10;8.70;;;;;;;20.25;100.00;99801.41;5550145;32;34113;-72
2022/08/20 00:09:33;;;;;;;16.90;8.93;;;;;;;20.24;100.00;99804.31;5550915;32;34589;-71
2022/08/20 00:12:43;;;;;;;21.87;8.93;;;;;;;20.35;100.00;99806.16;5550861;32;35345;-71
2022/08/20 00:15:46;;;;;;;18.92;9.18;;;;;;;20.38;100.00;99813.78;5551176;32;33888;-71
2022/08/20 00:18:49;;;;;;;19.77;9.45;;;;;;;20.39;100.00;99821.59;5550057;32;34032;-72
2022/08/20 00:21:52;;;;;;;14.57;8.38;;;;;;;20.39;100.00;99828.84;5550679;32;34574;-72
2022/08/20 00:25:00;;;;;;;23.58;8.40;;;;;;;20.31;100.00;99834.66;5550540;32;34340;-72
2022/08/20 00:28:05;;;;;;;15.57;8.65;;;;;;;20.33;100.00;99825.25;5550436;32;34653;-71
2022/08/20 00:31:10;;;;;;;15.60;8.00;;;;;;;20.29;100.00;99823.25;5550490;32;34192;-71
2022/08/20 00:34:13;;;;;;;15.95;7.47;;;;;;;20.25;100.00;99832.91;5550568;32;33907;-71
2022/08/20 00:37:16;;;;;;;12.95;7.70;;;;;;;20.24;100.00;99844.72;5550588;32;33219;-71
2022/08/20 00:40:23;;;;;;;12.55;8.10;;;;;;;20.30;100.00;99824.91;5550503;32;33425;-71
2022/08/20 00:43:41;;;;;;;13.20;7.57;;;;;;;20.24;100.00;99818.59;5536902;32;32705;-71
2022/08/20 00:46:45;;;;;;;12.77;7.90;;;;;;;20.23;100.00;99832.34;5550603;32;34608;-71
2022/08/20 00:49:48;;;;;;;13.40;7.15;;;;;;;20.29;100.00;99815.19;5549888;32;34022;-71
2022/08/20 00:52:52;;;;;;;15.60;7.07;;;;;;;20.34;100.00;99823.38;5549555;32;33293;-70
2022/08/20 00:55:55;;;;;;;14.00;7.60;;;;;;;20.29;100.00;99826.78;5550541;32;34003;-71
2022/08/20 00:58:58;;;;;;;11.80;6.50;;;;;;;20.29;100.00;99813.31;5550130;32;34718;-71
2022/08/20 01:02:04;;;;;;;13.30;6.80;;;;;;;20.28;100.00;99811.66;5550595;32;35041;-71
2022/08/20 01:05:08;;;;;;;12.57;6.93;;;;;;;20.26;100.00;99811.13;5550424;32;33456;-70
2022/08/20 01:08:12;;;;;;;16.12;7.35;;;;;;;20.28;100.00;99802.78;5549582;32;34048;-71
2022/08/20 01:11:16;;;;;;;11.55;6.47;;;;;;;20.34;100.00;99780.28;5549466;32;33931;-71
2022/08/20 01:17:31;;;;;;;;;;;;;;;20.43;100.00;99761.84;5550509;32;34630;-71
2022/08/20 01:20:39;;;;;;;13.13;6.80;;;;;;;20.41;100.00;99750.47;5549483;32;34678;-71
2022/08/20 01:24:10;;;;;;;15.45;7.65;;;;;;;20.36;100.00;99748.53;5550079;32;33943;-71
2022/08/20 01:27:13;;;;;;;15.55;7.40;;;;;;;20.41;100.00;99743.22;5550084;32;34395;-72
2022/08/20 01:30:16;;;;;;;12.90;6.80;;;;;;;20.41;100.00;99726.22;5550254;32;33996;-70
2022/08/20 01:33:20;;;;;;;13.00;6.68;;;;;;;20.47;100.00;99723.38;5549747;32;34581;-70
2022/08/20 01:36:46;;;;;;;12.80;6.50;;;;;;;20.49;100.00;99712.31;5549109;32;35774;-71
2022/08/20 01:39:49;;;;;;;7.82;5.60;;;;;;;20.48;100.00;99708.03;5549730;32;33991;-71
2022/08/20 01:42:52;;;;;;;12.30;6.32;;;;;;;20.57;100.00;99701.13;5549808;32;34391;-70
2022/08/20 01:46:01;;;;;;;15.23;6.43;;;;;;;20.55;100.00;99711.34;5524627;32;32521;-71
2022/08/20 01:49:11;;;;;;;15.95;6.35;;;;;;;20.52;100.00;99707.28;5549668;32;33983;-71
2022/08/20 01:52:35;;;;;;;10.02;5.57;;;;;;;20.47;100.00;99727.94;5549703;32;34009;-70
2022/08/20 01:55:38;;;;;;;11.75;6.22;;;;;;;20.47;100.00;99730.62;5549567;32;34110;-71
2022/08/20 01:58:45;;;;;;;14.25;6.20;;;;;;;20.41;100.00;99728.94;5549545;32;33824;-70
2022/08/20 02:01:48;;;;;;;15.82;5.55;;;;;;;20.36;100.00;99717.03;5551715;32;34410;-71
2022/08/20 02:04:51;;;;;;;14.52;6.00;;;;;;;20.19;100.00;99729.66;5551310;32;33628;-71
2022/08/20 02:07:54;;;;;;;11.02;5.53;;;;;;;20.12;100.00;99734.41;5551123;32;33990;-71
2022/08/20 02:10:57;;;;;;;13.05;5.60;;;;;;;20.03;100.00;99735.88;5552143;32;34036;-71
2022/08/20 02:14:01;;;;;;;12.43;5.50;;;;;;;19.98;100.00;99740.34;5551736;32;33965;-71
2022/08/20 02:17:06;;;;;;;14.30;5.55;;;;;;;19.90;100.00;99737.00;5551921;32;33984;-72
2022/08/20 02:20:15;;;;;;;9.70;5.70;;;;;;;19.85;100.00;99741.47;5551793;32;34585;-72
2022/08/20 02:23:18;;;;;;;11.63;5.75;;;;;;;19.80;100.00;99747.59;5551863;32;34010;-71
2022/08/20 02:26:21;;;;;;;14.85;5.70;;;;;;;19.81;100.00;99743.03;5550930;32;34609;-71
2022/08/20 02:29:24;;;;;;;15.18;5.90;;;;;;;19.79;100.00;99739.78;5547899;32;136038;-71
2022/08/20 02:32:27;;;;;;;9.23;5.45;;;;;;;19.76;100.00;99754.53;5551678;32;34033;-72
2022/08/20 02:35:38;;;;;;;13.82;6.05;;;;;;;19.75;100.00;99752.88;5550711;32;34287;-71
2022/08/20 02:38:41;;;;;;;11.32;5.28;;;;;;;19.82;100.00;99756.25;5550880;32;33900;-71
2022/08/20 02:41:43;;;;;;;10.15;5.25;;;;;;;19.84;100.00;99764.91;5551705;32;33939;-72
2022/08/20 02:44:46;;;;;;;12.95;6.20;;;;;;;19.85;100.00;99771.06;5551558;32;34017;-71
2022/08/20 02:47:52;;;;;;;11.88;5.93;;;;;;;19.84;100.00;99772.16;5551579;32;34689;-71
2022/08/20 02:51:03;;;;;;;17.17;6.50;;;;;;;19.87;100.00;99780.56;5551558;32;33942;-71
2022/08/20 02:54:05;;;;;;;11.80;6.28;;;;;;;19.87;100.00;99790.50;5551461;32;33853;-72
2022/08/20 02:57:12;;;;;;;18.27;7.40;;;;;;;19.89;100.00;99802.69;5551571;32;34022;-71
2022/08/20 03:00:19;;;;;;;14.27;7.30;;;;;;;19.86;100.00;99792.38;5551355;32;33836;-71
2022/08/20 03:03:23;;;;;;;16.85;7.30;;;;;;;19.79;100.00;99778.28;5551499;32;34089;-71
2022/08/20 03:06:26;;;;;;;15.25;7.78;;;;;;;19.78;100.00;99775.81;5551259;32;34251;-71
2022/08/20 03:09:29;;;;;;;19.00;8.32;;;;;;;19.81;100.00;99788.78;5551708;32;34616;-71
2022/08/20 03:12:32;;;;;;;18.15;8.00;;;;;;;19.87;100.00;99777.06;5550794;32;33939;-70
2022/08/20 03:15:40;;;;;;;13.27;7.68;;;;;;;19.89;100.00;99785.72;5551224;32;34019;-70
2022/08/20 03:18:45;;;;;;;16.12;8.20;;;;;;;19.98;100.00;99821.13;5551221;32;34569;-71
2022/08/20 03:21:48;;;;;;;19.12;7.90;;;;;;;19.95;100.00;99838.56;5551524;32;34605;-72
2022/08/20 03:24:51;;;;;;;16.25;8.00;;;;;;;19.92;100.00;99852.53;5551045;32;34881;-71
2022/08/20 03:27:56;;;;;;;13.93;6.80;;;;;;;20.08;100.00;99850.94;5551073;32;34022;-72
2022/08/20 03:30:59;;;;;;;18.85;7.30;;;;;;;19.94;100.00;99843.13;5551201;32;33403;-71
2022/08/20 03:34:02;;;;;;;17.30;8.15;;;;;;;19.91;100.00;99822.09;5550832;32;34257;-71
2022/08/20 03:37:05;;;;;;;13.90;7.70;;;;;;;19.89;100.00;99828.78;5551067;32;35359;-71
2022/08/20 03:40:14;;;;;;;14.65;7.47;;;;;;;19.90;100.00;99865.41;5551090;32;34431;-72
2022/08/20 03:43:17;;;;;;;12.23;6.53;;;;;;;20.01;100.00;99869.91;5551498;32;34685;-71
2022/08/20 03:46:20;;;;;;;15.75;6.45;;;;;;;20.08;100.00;99821.31;5550266;32;34637;-70
2022/08/20 03:49:25;;;;;;;16.45;7.28;;;;;;;20.15;100.00;99816.56;5551089;32;34036;-72
2022/08/20 03:52:28;;;;;;;14.65;6.72;;;;;;;20.18;100.00;99845.72;5551147;32;34054;-71
2022/08/20 03:55:31;;;;;;;15.73;6.25;;;;;;;20.30;100.00;99868.84;5550893;32;33552;-71
2022/08/20 03:58:33;;;;;;;11.93;6.55;;;;;;;20.35;100.00;99843.88;5550986;32;33455;-71
2022/08/20 04:01:37;;;;;;;14.52;6.90;;;;;;;20.33;100.00;99848.72;5550965;32;33873;-71
2022/08/20 04:04:48;;;;;;;14.70;7.50;;;;;;;20.32;100.00;99849.75;5550014;32;33258;-71
2022/08/20 04:07:50;;;;;;;11.15;6.72;;;;;;;20.31;100.00;99840.87;5549822;32;32667;-72
2022/08/20 04:10:56;;;;;;;16.70;7.25;;;;;;;20.25;100.00;99840.97;5550906;32;35282;-72
2022/08/20 04:13:59;;;;;;;13.38;6.00;;;;;;;20.22;100.00;99854.94;5550915;32;34032;-73
2022/08/20 04:17:05;;;;;;;12.70;6.25;;;;;;;20.25;100.00;99841.78;5550857;32;34341;-72
2022/08/20 04:20:10;;;;;;;11.23;6.28;;;;;;;20.32;100.00;99842.50;5550837;32;34047;-72
2022/08/20 04:23:14;;;;;;;12.18;6.05;;;;;;;20.34;100.00;99847.63;5549541;32;34098;-72
2022/08/20 04:26:18;;;;;;;11.65;6.20;;;;;;;20.43;100.00;99842.66;5550697;32;35289;-72
2022/08/20 04:29:22;;;;;;;16.83;5.97;;;;;;;20.45;100.00;99838.66;5551049;32;33845;-71
2022/08/20 04:32:26;;;;;;;13.50;6.35;;;;;;;20.47;100.00;99814.16;5550621;32;34050;-71
2022/08/20 04:35:30;;;;;;;12.73;5.95;;;;;;;20.47;100.00;99803.37;5550859;32;34059;-73
2022/08/20 04:38:33;;;;;;;14.15;6.37;;;;;;;20.42;100.00;99795.22;5550471;32;34182;-71
2022/08/20 04:41:54;;;;;;;13.77;6.32;;;;;;;20.52;100.00;99796.19;5550543;32;34299;-73
2022/08/20 04:44:56;;;;;;;12.13;6.80;;;;;;;20.36;100.00;99816.69;5549722;32;33857;-72
2022/08/20 04:48:04;;;;;;;15.35;7.18;;;;;;;20.32;100.00;99830.91;5550457;32;34629;-72
2022/08/20 04:51:08;;;;;;;17.85;7.72;;;;;;;20.32;100.00;99831.72;5550497;32;34052;-71
2022/08/20 04:54:13;;;;;;;14.70;7.05;;;;;;;20.39;100.00;99835.06;5550422;32;34131;-70
2022/08/20 04:57:15;;;;;;;15.10;7.05;;;;;;;20.50;100.00;99827.97;5549696;32;32619;-71
2022/08/20 05:00:19;;;;;;;14.23;7.25;;;;;;;20.43;100.00;99821.13;5550461;32;33846;-72
2022/08/20 05:03:22;;;;;;;15.85;7.45;;;;;;;20.44;100.00;99831.63;5550370;32;34372;-72
2022/08/20 05:06:29;;;;;;;15.32;7.45;;;;;;;20.43;100.00;99827.28;5549717;32;32318;-73
2022/08/20 05:09:32;;;;;;;13.43;7.00;;;;;;;20.44;100.00;99826.25;5550325;32;35469;-72
2022/08/20 05:12:46;;;;;;;12.85;6.65;;;;;;;20.46;100.00;99832.22;5550200;32;34756;-71
2022/08/20 05:16:03;;;;;;;15.43;7.18;;;;;;;20.53;100.00;99846.31;5550252;32;34698;-71
2022/08/20 05:19:11;;;;;;;13.02;6.82;;;;;;;20.60;100.00;99843.47;5549598;32;32656;-68
2022/08/20 05:22:14;;;;;;;17.75;6.87;;;;;;;20.79;100.00;99844.84;5550061;32;34083;-72
2022/08/20 05:25:17;;;;;;;14.38;6.57;;;;;;;20.89;100.00;99833.37;5549935;32;34330;-71
2022/08/20 05:28:23;;;;;;;13.02;6.30;;;;;;;20.88;100.00;99839.84;5549061;32;34643;-72
2022/08/20 05:31:27;;;;;;;16.80;6.32;;;;;;;20.93;100.00;99826.44;5550035;32;34653;-72
2022/08/20 05:34:35;;;;;;;12.90;6.72;;;;;;;20.96;100.00;99829.44;5549224;32;34429;-72
2022/08/20 05:37:40;;;;;;;11.65;6.03;;;;;;;21.01;100.00;99824.09;5549143;32;34628;-72
2022/08/20 05:40:43;;;;;;;15.20;5.85;;;;;;;21.10;100.00;99822.62;5549619;32;34183;-70
2022/08/20 05:43:46;;;;;;;9.95;4.82;;;;;;;21.31;100.00;99818.31;5549092;32;32580;-71
2022/08/20 05:46:52;;;;;;;12.20;5.40;;;;;;;21.34;100.00;99817.03;5549601;32;34723;-72
2022/08/20 05:49:55;;;;;;;10.93;5.10;;;;;;;21.42;100.00;99817.37;5549510;32;33962;-71
2022/08/20 05:53:00;;;;;;;10.20;5.00;;;;;;;21.40;100.00;99819.50;5549664;32;34053;-71
2022/08/20 05:56:03;;;;;;;10.23;4.78;;;;;;;21.41;100.00;99815.75;5549749;32;35247;-72
2022/08/20 05:59:08;;;;;;;11.23;4.82;;;;;;;21.52;100.00;99822.09;5549425;32;34670;-72
2022/08/20 06:05:33;;;;;;;12.32;4.62;;;;;;;21.50;100.00;99822.34;5548761;32;32334;-72
2022/08/20 06:08:36;;;;;;;13.70;4.85;;;;;;;21.57;100.00;99833.75;5549725;32;33985;-71
2022/08/20 06:11:39;;;;;;;11.35;5.28;;;;;;;21.54;100.00;99831.56;5548989;32;34890;-72
2022/08/20 06:14:41;;;;;;;14.75;5.07;;;;;;;21.63;100.00;99819.25;5549254;32;33853;-71
2022/08/20 06:17:44;;;;;;;15.65;5.47;;;;;;;21.80;100.00;99819.16;5547828;32;32943;-71
2022/08/20 06:20:59;;;;;;;13.15;5.12;;;;;;;22.05;100.00;99811.34;5548886;32;34525;-71
2022/08/20 06:24:02;;;;;;;14.30;4.95;;;;;;;22.31;100.00;99830.47;5548125;32;34013;-71
2022/08/20 06:27:05;;;;;;;9.40;4.60;;;;;;;22.50;100.00;99842.53;5548113;32;34005;-70
2022/08/20 06:30:11;;;;;;;10.30;4.78;;;;;;;22.65;100.00;99839.94;5548864;32;34173;-71
2022/08/20 06:33:13;;;;;;;16.48;4.75;;;;;;;22.90;98.41;99844.69;5548811;32;34323;-72
2022/08/20 06:36:16;;;;;;;13.02;3.87;;;;;;;23.09;97.07;99848.59;5548613;32;34645;-69
2022/08/20 06:39:20;;;;;;;12.23;4.22;;;;;;;23.12;95.65;99844.56;5548703;32;34491;-70
2022/08/20 06:42:23;;;;;;;8.98;4.10;;;;;;;23.22;93.17;99840.03;5548544;32;34834;-71
2022/08/20 06:45:30;;;;;;;11.93;3.85;;;;;;;23.12;93.54;99842.69;5535283;32;34581;-71
2022/08/20 06:48:33;;;;;;;17.15;4.72;;;;;;;23.01;93.97;99841.00;5550118;32;32502;-72
2022/08/20 06:51:38;;;;;;;11.10;4.20;;;;;;;23.04;93.72;99856.72;5551023;32;32322;-71
2022/08/20 06:54:44;;;;;;;10.73;4.47;;;;;;;22.89;95.00;99854.72;5551487;32;33906;-72
2022/08/20 06:57:55;;;;;;;10.85;3.97;;;;;;;23.17;94.10;99858.94;5551394;32;33909;-71
2022/08/20 07:00:59;;;;;;;10.68;4.68;;;;;;;23.56;91.16;99883.78;5551434;32;33993;-72
2022/08/20 07:04:10;;;;;;;11.68;4.00;;;;;;;23.86;89.80;99869.53;5550962;32;33886;-71
2022/08/20 07:07:18;;;;;;;11.85;4.22;;;;;;;24.04;90.46;99882.59;5551075;32;33856;-72
2022/08/20 07:10:23;;;;;;;11.15;4.47;;;;;;;23.78;90.97;99897.94;5551624;32;34126;-71
2022/08/20 07:13:27;;;;;;;7.37;4.15;;;;;;;23.94;90.00;99892.56;5550955;32;34199;-72
2022/08/20 07:16:30;;;;;;;12.80;4.78;;;;;;;24.12;91.92;99908.31;5550260;32;32412;-72
2022/08/20 07:19:35;;;;;;;11.18;4.45;;;;;;;24.14;89.22;99915.13;5550233;32;34600;-71
2022/08/20 07:22:37;;;;;;;9.43;3.87;;;;;;;24.11;90.57;99912.13;5550071;32;34043;-71
2022/08/20 07:25:42;;;;;;;12.43;4.43;;;;;;;24.29;88.85;99917.09;5550849;32;34561;-71
2022/08/20 07:28:45;;;;;;;13.05;3.83;;;;;;;23.91;89.12;99902.06;5550887;32;35256;-71
2022/08/20 07:35:14;;;;;;;9.48;3.80;;;;;;;24.00;89.12;99908.59;5550022;32;32442;-71
2022/08/20 07:38:23;;;;;;;17.92;3.92;;;;;;;24.15;87.39;99916.75;5551093;32;34071;-70
2022/08/20 07:41:26;;;;;;;11.40;3.53;;;;;;;23.97;85.65;99921.84;5550941;32;34666;-71
2022/08/20 07:44:29;;;;;;;13.10;3.92;;;;;;;23.71;84.70;99929.91;5551016;32;35036;-71
2022/08/20 07:47:34;;;;;;;14.77;3.12;;;;;;;23.57;86.31;99925.22;5550846;32;34295;-71
2022/08/20 07:50:38;;;;;;;10.93;3.10;;;;;;;23.55;83.96;99940.91;5550252;32;33651;-71
2022/08/20 07:53:41;;;;;;;14.07;3.60;;;;;;;23.51;83.58;99964.19;5550611;32;33876;-72
2022/08/20 07:56:43;;;;;;;12.68;3.37;;;;;;;23.47;83.34;99982.84;5550139;32;32464;-71
2022/08/20 07:59:47;;;;;;;10.55;2.85;;;;;;;23.42;84.33;100009.84;5550660;32;34411;-71
2022/08/20 08:02:51;;;;;;;14.52;3.67;;;;;;;23.38;85.20;100025.00;5550203;32;32817;-72
2022/08/20 08:05:54;;;;;;;14.38;3.50;;;;;;;22.50;86.88;100042.56;5550206;32;34633;-77
2022/08/20 08:09:05;;;;;;;13.90;3.53;;;;;;;21.28;98.21;100040.09;5553792;32;34676;-78
2022/08/20 08:12:07;;;;;;;12.63;3.85;;;;;;;20.42;100.00;100059.28;5554785;32;33915;-80
2022/08/20 08:15:14;;;;;;;14.27;4.20;;;;;;;20.01;100.00;100065.66;5551153;32;34507;-82
2022/08/20 08:18:23;;;;;;;15.35;4.12;;;;;;;19.83;100.00;100080.91;5550385;32;34417;-76
2022/08/20 08:21:31;;;;;;;12.10;4.47;;;;;;;19.68;100.00;100067.09;5550226;32;32563;-75
2022/08/20 08:24:34;;;;;;;11.55;4.78;;;;;;;19.47;100.00;100084.63;5550796;32;34416;-78
2022/08/20 08:27:36;;;;;;;12.88;5.00;;;;;;;19.40;100.00;100099.22;5551220;32;34648;-70
2022/08/20 08:30:41;;;;;;;18.23;5.68;;;;;;;19.43;100.00;100096.91;5550598;32;35147;-71
2022/08/20 08:33:43;;;;;;;14.52;7.20;;;;;;;19.12;100.00;100094.50;5536914;32;33533;-71
2022/08/20 08:36:46;;;;;;;11.27;4.87;;;;;;;19.17;100.00;100046.22;5550582;32;34179;-70
2022/08/20 08:39:49;;;;;;;14.98;4.97;;;;;;;19.21;100.00;100044.72;5550640;32;33975;-69
2022/08/20 08:42:56;;;;;;;10.95;4.85;;;;;;;19.27;100.00;100049.16;5550718;32;33925;-69
2022/08/20 08:46:05;;;;;;;12.52;5.37;;;;;;;19.18;100.00;100030.91;5537019;32;32608;-68
2022/08/20 08:49:15;;;;;;;9.68;5.20;;;;;;;19.11;100.00;100055.22;5549895;32;32423;-69
2022/08/20 08:52:22;;;;;;;12.75;5.65;;;;;;;18.93;100.00;100066.03;5549739;32;33903;-69
2022/08/20 08:55:28;;;;;;;14.95;6.47;;;;;;;18.97;100.00;100043.03;5549616;32;34175;-69
2022/08/20 08:58:33;;;;;;;13.02;6.25;;;;;;;18.97;100.00;100033.09;5550357;32;33993;-69
2022/08/20 09:01:45;;;;;;;12.37;5.55;;;;;;;19.08;100.00;100026.09;5549819;32;33623;-69
2022/08/20 09:05:01;;;;;;;15.15;6.28;;;;;;;19.09;100.00;100019.66;5550568;32;34745;-69
2022/08/20 09:08:10;;;;;;;11.68;5.12;;;;;;;19.05;100.00;100015.81;5550257;32;33988;-69
2022/08/20 09:11:21;;;;;;;13.23;5.05;;;;;;;19.02;100.00;100000.97;5548387;32;33244;-71
2022/08/20 09:14:24;;;;;;;20.12;6.53;;;;;;;18.98;100.00;100005.16;5549601;32;33537;-71
2022/08/20 09:17:26;;;;;;;16.12;6.70;;;;;;;18.93;100.00;100010.41;5550024;32;34855;-71
2022/08/20 09:20:30;;;;;;;11.57;7.12;;;;;;;18.84;100.00;100030.59;5550273;32;34209;-71
2022/08/20 09:23:33;;;;;;;16.15;6.87;;;;;;;18.94;100.00;100048.84;5536650;32;32357;-71
2022/08/20 09:26:36;;;;;;;16.12;6.85;;;;;;;18.98;100.00;100087.66;5549546;32;33098;-71
2022/08/20 09:29:41;;;;;;;17.62;8.35;;;;;;;19.01;100.00;100136.44;5548986;32;32696;-71
2022/08/20 09:32:45;;;;;;;18.75;7.40;;;;;;;19.05;100.00;100142.19;5550328;32;33938;-72
2022/08/20 09:35:47;;;;;;;21.83;8.00;;;;;;;18.99;100.00;100126.94;5549728;32;33999;-72
2022/08/20 09:38:53;;;;;;;15.05;7.53;;;;;;;18.93;100.00;100100.97;5549508;32;33975;-70
2022/08/20 09:42:10;;;;;;;18.15;8.43;;;;;;;18.87;100.00;100083.91;5549751;32;34361;-71
2022/08/20 09:45:14;;;;;;;17.10;7.22;;;;;;;18.86;100.00;100074.22;5549743;32;33984;-70
2022/08/20 09:48:16;;;;;;;18.67;7.05;;;;;;;18.88;100.00;100076.69;5548560;32;33037;-72
2022/08/20 09:51:19;;;;;;;16.45;6.90;;;;;;;18.88;100.00;100080.16;5549018;32;32374;-70
2022/08/20 09:54:26;;;;;;;17.40;7.07;;;;;;;18.86;100.00;100054.56;5549582;32;34638;-70
2022/08/20 09:57:31;;;;;;;16.45;7.25;;;;;;;18.82;100.00;100026.53;5549425;32;33909;-70
2022/08/20 10:00:34;;;;;;;19.52;8.52;;;;;;;18.81;100.00;100000.69;5548660;32;34369;-70
2022/08/20 10:03:37;;;;;;;18.10;8.55;;;;;;;18.87;100.00;99971.03;5549418;32;34668;-70
2022/08/20 10:06:44;;;;;;;19.00;8.40;;;;;;;18.80;100.00;99947.97;5548655;32;34039;-71
2022/08/20 10:09:47;;;;;;;16.75;8.10;;;;;;;18.83;100.00;99936.78;5549563;32;34011;-70
2022/08/20 10:12:49;;;;;;;10.98;6.60;;;;;;;18.73;100.00;99944.59;5549140;32;35172;-72
2022/08/20 10:15:56;;;;;;;13.75;7.50;;;;;;;18.76;100.00;99933.37;5548459;32;33529;-72
2022/08/20 10:18:59;;;;;;;18.02;7.65;;;;;;;18.94;100.00;99926.03;5548976;32;34871;-71
2022/08/20 10:22:02;;;;;;;15.30;7.53;;;;;;;19.10;100.00;99916.44;5549999;32;34003;-71
2022/08/20 10:25:06;;;;;;;14.35;7.15;;;;;;;19.43;100.00;99910.44;5537979;32;33234;-72
2022/08/20 10:28:09;;;;;;;21.52;8.32;;;;;;;19.82;100.00;99908.84;5550526;32;32582;-70
2022/08/20 10:31:12;;;;;;;17.73;7.40;;;;;;;20.33;100.00;99922.25;5551763;32;32522;-72
2022/08/20 10:34:14;;;;;;;12.37;6.80;;;;;;;20.84;100.00;99925.78;5551599;32;34222;-75
2022/08/20 10:57:54;;;;;;;12.98;4.75;;;;;;;21.11;100.00;99979.88;5549883;32;34623;-74
2022/08/20 11:00:57;;;;;;;10.55;3.95;;;;;;;21.17;100.00;99992.41;5550845;32;32754;-75
2022/08/20 11:03:59;;;;;;;10.48;4.47;;;;;;;21.20;100.00;99997.34;5551416;32;34031;-73
2022/08/20 11:07:11;;;;;;;8.23;3.87;;;;;;;21.53;100.00;100001.88;5551670;32;33888;-72
2022/08/20 11:10:14;;;;;;;9.57;4.12;;;;;;;21.27;100.00;99997.97;5551316;32;34773;-73
2022/08/20 11:13:17;;;;;;;11.02;4.47;;;;;;;21.84;100.00;99997.69;5551666;32;34272;-72
2022/08/20 11:16:20;;;;;;;7.00;4.07;;;;;;;22.09;100.00;100014.25;5551680;32;35320;-71
2022/08/20 11:19:24;;;;;;;13.48;4.37;;;;;;;21.80;100.00;100018.16;5550522;32;34101;-72
2022/08/20 11:22:27;;;;;;;10.77;4.07;;;;;;;22.26;100.00;100019.59;5551471;32;34690;-72
2022/08/20 11:25:30;;;;;;;8.07;4.20;;;;;;;22.39;100.00;100019.19;5550923;32;34351;-72
2022/08/20 11:28:33;;;;;;;10.60;4.00;;;;;;;22.53;100.00;100009.59;5551199;32;34093;-73
2022/08/20 11:31:36;;;;;;;7.07;3.33;;;;;;;22.47;100.00;100007.91;5550991;32;34755;-70
2022/08/20 11:34:38;;;;;;;5.85;3.37;;;;;;;22.79;100.00;100000.72;5549593;32;34574;-72
2022/08/20 11:37:41;;;;;;;9.18;4.05;;;;;;;22.50;100.00;100004.72;5551009;32;34621;-71
2022/08/20 11:40:47;;;;;;;15.32;4.60;;;;;;;23.03;100.00;100014.72;5550317;32;32449;-72
2022/08/20 11:43:50;;;;;;;9.13;3.67;;;;;;;22.74;100.00;99997.97;5550867;32;34022;-71
2022/08/20 11:47:25;;;;;;;9.32;3.72;;;;;;;23.49;99.40;99998.81;5551246;32;34116;-72
2022/08/20 11:50:30;;;;;;;9.77;4.07;;;;;;;22.74;100.00;99989.03;5550910;32;34619;-71
2022/08/20 11:53:33;;;;;;;10.40;4.18;;;;;;;22.64;100.00;99991.59;5551210;32;34490;-72
2022/08/20 11:56:39;;;;;;;10.70;4.10;;;;;;;22.91;100.00;99998.63;5550954;32;34107;-71
2022/08/20 11:59:49;;;;;;;11.75;3.83;;;;;;;23.21;100.00;99995.34;5550114;32;33730;-71
2022/08/20 12:02:51;;;;;;;9.77;3.90;;;;;;;22.81;100.00;99985.03;5550068;32;33990;-70
2022/08/20 12:05:56;;;;;;;11.18;3.78;;;;;;;22.84;100.00;99991.81;5550514;32;33946;-71
2022/08/20 12:08:59;;;;;;;11.15;3.30;;;;;;;22.77;99.12;99983.91;5549778;32;32447;-71
2022/08/20 12:12:02;;;;;;;11.25;3.72;;;;;;;22.30;100.00;99978.28;5550551;32;33991;-71
2022/08/20 12:15:07;;;;;;;7.70;3.70;;;;;;;22.52;100.00;99968.22;5550660;32;34327;-72
2022/08/20 12:18:09;;;;;;;11.70;3.97;;;;;;;23.49;97.77;99969.03;5550713;32;34279;-71
2022/08/20 12:21:12;;;;;;;7.00;3.65;;;;;;;23.09;99.31;99962.25;5550716;32;34733;-70
2022/08/20 12:24:15;;;;;;;12.43;3.78;;;;;;;23.77;96.63;99961.31;5550049;32;33185;-71
2022/08/20 12:27:25;;;;;;;13.70;4.07;;;;;;;23.34;95.71;99948.06;5550521;32;34770;-71
2022/08/20 12:30:28;;;;;;;12.48;4.45;;;;;;;23.04;100.00;99942.47;5549597;32;32376;-70
2022/08/20 12:33:31;;;;;;;8.60;3.70;;;;;;;23.52;96.79;99926.03;5550755;32;34545;-71
2022/08/20 12:36:34;;;;;;;11.38;4.53;;;;;;;23.29;98.72;99920.97;5550090;32;33114;-71
2022/08/20 12:39:41;;;;;;;12.07;4.82;;;;;;;23.77;98.67;99915.28;5550171;32;33966;-71
2022/08/20 12:42:44;;;;;;;8.15;3.92;;;;;;;23.90;95.77;99910.44;5550522;32;34045;-71
2022/08/20 12:45:46;;;;;;;7.57;3.95;;;;;;;23.96;95.39;99904.78;5549387;32;33909;-71
2022/08/20 12:48:49;;;;;;;9.07;4.22;;;;;;;23.35;98.39;99893.69;5549578;32;33144;-72
2022/08/20 12:51:51;;;;;;;9.88;3.92;;;;;;;23.26;99.55;99891.72;5549862;32;33262;-71
2022/08/20 12:54:56;;;;;;;11.80;3.95;;;;;;;23.23;100.00;99887.66;5550804;32;34384;-71
2022/08/20 12:58:01;;;;;;;9.25;3.40;;;;;;;23.36;97.71;99886.37;5548995;32;34172;-72
2022/08/20 13:01:06;;;;;;;10.18;2.92;;;;;;;23.52;96.20;99887.28;5550265;32;33987;-71
2022/08/20 13:04:09;;;;;;;8.98;3.30;;;;;;;23.18;95.34;99881.41;5549470;32;32804;-70
2022/08/20 13:07:12;;;;;;;10.20;3.20;;;;;;;23.27;95.21;99877.13;5549385;32;32461;-70
2022/08/20 13:10:22;;;;;;;6.53;2.78;;;;;;;23.45;92.99;99873.16;5549074;32;32886;-70
2022/08/20 13:13:24;;;;;;;10.02;2.97;;;;;;;23.05;94.84;99866.44;5550020;32;34355;-70
2022/08/20 13:16:27;;;;;;;9.10;2.72;;;;;;;22.90;97.63;99872.56;5550189;32;34875;-70
2022/08/20 13:19:31;;;;;;;8.98;2.80;;;;;;;23.00;96.12;99874.53;5548879;32;33860;-69
2022/08/20 13:22:34;;;;;;;7.10;2.70;;;;;;;23.18;96.32;99876.81;5549955;32;34004;-71
2022/08/20 13:25:37;;;;;;;8.00;2.75;;;;;;;23.44;92.89;99866.09;5549179;32;32577;-70
2022/08/20 13:28:40;;;;;;;9.18;3.55;;;;;;;23.11;94.07;99865.41;5549810;32;34414;-70
2022/08/20 13:31:43;;;;;;;11.20;3.20;;;;;;;23.48;92.32;99865.31;5548918;32;32457;-70
2022/08/20 13:34:46;;;;;;;8.25;2.97;;;;;;;24.17;88.56;99871.25;5548595;32;32486;-69
2022/08/20 13:37:49;;;;;;;6.53;2.85;;;;;;;24.13;89.60;99861.19;5536074;32;32858;-71
2022/08/20 13:40:52;;;;;;;12.35;3.35;;;;;;;23.96;89.73;99863.31;5549720;32;33992;-70
2022/08/20 13:43:54;;;;;;;8.50;2.65;;;;;;;23.53;92.61;99859.94;5549014;32;32299;-71
2022/08/20 13:46:58;;;;;;;7.20;2.37;;;;;;;23.32;89.70;99869.84;5549680;32;35302;-70
2022/08/20 13:50:08;;;;;;;8.23;2.45;;;;;;;23.28;86.55;99863.34;5549636;32;34497;-70
2022/08/20 13:53:11;;;;;;;8.00;2.50;;;;;;;23.43;85.22;99878.03;5548583;32;34686;-71
2022/08/20 13:56:14;;;;;;;8.32;3.20;;;;;;;23.71;85.79;99873.03;5550181;32;33988;-71
2022/08/20 13:59:17;;;;;;;10.93;3.00;;;;;;;23.77;84.43;99881.94;5551711;32;34477;-71
2022/08/20 14:02:20;;;;;;;7.25;2.58;;;;;;;23.23;87.10;99882.25;5551629;32;34581;-71
2022/08/20 14:05:23;;;;;;;7.72;2.75;;;;;;;22.84;87.98;99891.75;5551651;32;34002;-71
2022/08/20 14:08:25;;;;;;;9.40;2.75;;;;;;;23.02;88.20;99898.62;5551945;32;34158;-71
2022/08/20 14:11:28;;;;;;;8.35;3.47;;;;;;;23.20;88.57;99899.00;5551655;32;33879;-71
2022/08/20 14:14:31;;;;;;;9.55;2.75;;;;;;;23.11;87.48;99907.88;5551189;32;32789;-71
2022/08/20 14:17:36;;;;;;;11.07;2.85;;;;;;;23.43;87.46;99913.22;5550925;32;32424;-72
2022/08/20 14:20:40;;;;;;;7.55;2.60;;;;;;;23.52;86.58;99893.53;5550553;32;33133;-73
2022/08/20 14:23:47;;;;;;;12.68;3.10;;;;;;;23.16;87.55;99870.03;5551522;32;34629;-72
2022/08/20 14:26:49;;;;;;;10.93;2.95;;;;;;;23.01;90.39;99868.03;5550843;32;33071;-73
2022/08/20 14:29:52;;;;;;;9.85;2.65;;;;;;;22.90;92.28;99877.16;5551368;32;34911;-72
2022/08/20 14:32:55;;;;;;;12.80;3.12;;;;;;;23.08;91.52;99865.94;5551629;32;34002;-72
2022/08/20 14:35:58;;;;;;;7.60;2.95;;;;;;;23.21;88.88;99853.81;5550483;32;32438;-72
2022/08/20 14:39:01;;;;;;;8.02;2.97;;;;;;;22.84;92.11;99854.69;5551470;32;34616;-71
2022/08/20 14:42:04;;;;;;;8.68;3.15;;;;;;;22.78;92.88;99844.91;5551454;32;33996;-71